Time;durP1;ratioP1;P1;durP2;ratioP2;P2;SDS_P1;SDS_P2;PMS_P1;PMS_P2;Temp;Humidity;BMP_temperature;BMP_pressure;BME280_temperature;BME280_humidity;BME280_pressure;Samples;Min_cycle;Max_cycle;Signal;HPM_P1;HPM_P2
2023/03/19 00:01:10;;;;;;;0.00;0.00;;;;;;;7.49;63.73;100809.31;7357250;19;20049;-62
2023/03/19 00:03:36;;;;;;;0.00;0.00;;;;;;;7.47;64.44;100811.06;7361021;19;20831;-62
2023/03/19 00:06:01;;;;;;;0.00;0.00;;;;;;;7.40;64.45;100814.59;7345245;19;20011;-62
2023/03/19 00:08:27;;;;;;;0.00;0.00;;;;;;;7.44;64.28;100808.47;7356925;19;20112;-62
2023/03/19 00:10:52;;;;;;;0.00;0.00;;;;;;;7.41;64.86;100824.09;7353239;19;20025;-61
2023/03/19 00:13:18;;;;;;;0.05;0.05;;;;;;;7.35;64.93;100826.75;7353407;19;20006;-62
2023/03/19 00:15:44;;;;;;;0.00;0.00;;;;;;;7.37;64.98;100839.72;7358049;19;20022;-62
2023/03/19 00:18:09;;;;;;;0.00;0.00;;;;;;;7.36;64.49;100851.00;7357758;19;20006;-62
2023/03/19 00:20:35;;;;;;;0.08;0.08;;;;;;;7.34;64.97;100850.97;7344692;19;20018;-62
2023/03/19 00:23:00;;;;;;;0.00;0.00;;;;;;;7.34;64.97;100855.31;7356770;19;20478;-62
2023/03/19 00:25:26;;;;;;;0.00;0.00;;;;;;;7.32;64.76;100852.75;7355970;19;20184;-62
2023/03/19 00:27:53;;;;;;;0.00;0.00;;;;;;;7.30;65.12;100859.69;7353030;19;20451;-61
2023/03/19 00:30:20;;;;;;;0.10;0.10;;;;;;;7.28;65.21;100861.44;7354626;19;20019;-62
2023/03/19 00:32:47;;;;;;;0.00;0.00;;;;;;;7.28;64.48;100871.81;7354877;19;20050;-61
2023/03/19 00:35:12;;;;;;;0.00;0.00;;;;;;;7.27;64.53;100876.16;7357379;19;20468;-62
2023/03/19 00:37:38;;;;;;;0.00;0.00;;;;;;;7.26;64.12;100863.19;7353552;19;20014;-61
2023/03/19 00:40:04;;;;;;;0.00;0.00;;;;;;;7.25;64.58;100866.66;7354554;19;20018;-62
2023/03/19 00:42:30;;;;;;;0.00;0.00;;;;;;;7.24;64.17;100859.72;7356193;19;20100;-62
2023/03/19 00:44:56;;;;;;;0.00;0.00;;;;;;;7.08;64.17;100838.19;7355417;19;20454;-62
2023/03/19 00:47:22;;;;;;;0.00;0.00;;;;;;;7.19;64.08;100864.06;7357859;19;20015;-61
2023/03/19 00:49:47;;;;;;;0.00;0.00;;;;;;;7.18;63.97;100864.94;7359106;19;20015;-62
2023/03/19 00:52:13;;;;;;;0.00;0.00;;;;;;;7.17;64.20;100865.84;7357784;19;20042;-62
2023/03/19 00:54:38;;;;;;;0.00;0.00;;;;;;;7.15;63.61;100868.44;7360926;19;20010;-62
2023/03/19 00:57:04;;;;;;;0.00;0.00;;;;;;;7.13;63.93;100869.31;7357953;19;20014;-61
2023/03/19 00:59:30;;;;;;;0.00;0.00;;;;;;;7.11;64.06;100863.28;7360469;19;20013;-62
2023/03/19 01:01:55;;;;;;;0.00;0.00;;;;;;;7.09;63.72;100865.00;7358539;19;20026;-60
2023/03/19 01:04:22;;;;;;;0.00;0.00;;;;;;;6.96;63.39;100846.91;7331036;19;20048;-61
2023/03/19 01:06:47;;;;;;;0.00;0.00;;;;;;;7.06;64.01;100867.63;7360639;19;20470;-61
2023/03/19 01:09:13;;;;;;;0.00;0.00;;;;;;;7.03;63.50;100877.16;7355047;19;20018;-62
2023/03/19 01:11:38;;;;;;;0.10;0.10;;;;;;;7.01;63.74;100878.03;7357988;19;20017;-61
2023/03/19 01:14:03;;;;;;;0.00;0.00;;;;;;;6.98;64.06;100878.03;7359651;19;20693;-62
2023/03/19 01:16:29;;;;;;;0.00;0.00;;;;;;;6.97;64.00;100882.38;7350905;19;20019;-60
2023/03/19 01:18:55;;;;;;;0.00;0.00;;;;;;;6.96;63.83;100888.44;7358294;19;20042;-62
2023/03/19 01:21:20;;;;;;;0.00;0.00;;;;;;;6.94;63.93;100900.56;7359723;19;20392;-62
2023/03/19 01:23:46;;;;;;;0.00;0.00;;;;;;;6.93;63.84;100891.03;7357099;19;20026;-61
2023/03/19 01:26:11;;;;;;;0.00;0.00;;;;;;;6.87;63.49;100896.28;7358637;19;20010;-62
2023/03/19 01:28:37;;;;;;;0.00;0.00;;;;;;;6.58;63.37;100841.03;7357874;19;20010;-61
2023/03/19 01:31:06;;;;;;;0.00;0.00;;;;;;;6.90;63.79;100904.06;7357312;19;20010;-62
2023/03/19 01:33:32;;;;;;;0.00;0.00;;;;;;;6.74;63.85;100885.09;7356531;19;20470;-62
2023/03/19 01:36:01;;;;;;;0.00;0.00;;;;;;;6.82;63.51;100905.81;7360697;19;20006;-62
2023/03/19 01:38:26;;;;;;;0.00;0.00;;;;;;;6.83;63.65;100915.31;7357208;19;20010;-62
2023/03/19 01:40:52;;;;;;;0.00;0.00;;;;;;;6.82;63.67;100918.78;7359119;19;20025;-62
2023/03/19 01:43:26;;;;;;;0.00;0.00;;;;;;;6.81;63.74;100924.84;7353891;19;20739;-62
2023/03/19 01:45:58;;;;;;;0.00;0.00;;;;;;;6.77;63.66;100917.94;7355680;19;20050;-61
2023/03/19 01:48:33;;;;;;;0.00;0.00;;;;;;;6.80;63.97;100920.53;7355114;19;20381;-62
2023/03/19 01:51:00;;;;;;;0.00;0.00;;;;;;;6.77;63.66;100915.34;7358805;19;20580;-61
2023/03/19 01:53:30;;;;;;;0.00;0.00;;;;;;;6.75;63.91;100912.78;7357958;19;20331;-62
2023/03/19 01:56:09;;;;;;;0.00;0.00;;;;;;;6.76;63.90;100914.50;7355036;19;20101;-61
2023/03/19 01:58:35;;;;;;;0.00;0.00;;;;;;;6.75;64.09;100906.72;7356819;19;20014;-62
2023/03/19 02:01:02;;;;;;;0.00;0.00;;;;;;;6.61;63.42;100888.59;7356930;19;20035;-62
2023/03/19 02:03:27;;;;;;;0.00;0.00;;;;;;;6.68;63.51;100899.81;7355236;19;20017;-61
2023/03/19 02:05:55;;;;;;;0.00;0.00;;;;;;;6.59;63.33;100892.03;7359779;19;20018;-61
2023/03/19 02:08:22;;;;;;;0.00;0.00;;;;;;;6.69;63.73;100911.91;7353488;19;20014;-62
2023/03/19 02:10:50;;;;;;;0.00;0.00;;;;;;;6.55;63.65;100903.34;7358391;19;20018;-61
2023/03/19 02:13:16;;;;;;;0.00;0.00;;;;;;;6.65;63.50;100921.47;7354521;19;20015;-62
2023/03/19 02:15:41;;;;;;;0.08;0.08;;;;;;;6.62;63.73;100920.59;7354311;19;20081;-62
2023/03/19 02:18:07;;;;;;;0.00;0.00;;;;;;;6.62;63.81;100926.63;7358054;19;20018;-62
2023/03/19 02:20:59;;;;;;;0.00;0.00;;;;;;;6.63;63.67;100932.69;7356365;19;20027;-62
2023/03/19 02:23:41;;;;;;;0.03;0.03;;;;;;;6.62;64.24;100925.78;7252584;19;2004094;-62
2023/03/19 02:26:10;;;;;;;0.00;0.00;;;;;;;6.63;63.86;100933.56;7357347;19;20010;-61
2023/03/19 02:28:39;;;;;;;0.08;0.08;;;;;;;6.65;64.03;100930.97;7355996;19;20030;-62
2023/03/19 02:31:06;;;;;;;0.00;0.00;;;;;;;6.64;64.20;100934.41;7358515;19;20475;-61
2023/03/19 02:33:32;;;;;;;0.00;0.00;;;;;;;6.65;64.04;100934.44;7356975;19;20203;-62
2023/03/19 02:35:57;;;;;;;0.00;0.00;;;;;;;6.70;64.00;100944.81;7359421;19;20086;-61
2023/03/19 02:38:25;;;;;;;0.00;0.00;;;;;;;6.71;63.59;100936.13;7351992;19;20043;-62
2023/03/19 02:40:59;;;;;;;0.00;0.00;;;;;;;6.74;63.85;100941.31;7355754;19;20068;-61
2023/03/19 02:43:25;;;;;;;0.00;0.00;;;;;;;6.73;63.99;100940.44;7356605;19;20022;-61
2023/03/19 02:45:51;;;;;;;0.00;0.00;;;;;;;6.74;63.73;100931.81;7357105;19;22492;-62
2023/03/19 02:48:17;;;;;;;0.00;0.00;;;;;;;6.73;63.46;100934.38;7357977;19;20134;-61
2023/03/19 02:50:42;;;;;;;0.00;0.00;;;;;;;6.72;63.87;100932.66;7357831;19;22948;-62
2023/03/19 02:53:08;;;;;;;0.00;0.00;;;;;;;6.70;63.56;100934.41;7354007;19;20007;-61
2023/03/19 02:55:34;;;;;;;0.00;0.00;;;;;;;6.68;63.72;100936.13;7349152;19;20034;-62
2023/03/19 02:57:59;;;;;;;0.00;0.00;;;;;;;6.61;63.46;100926.66;7345931;19;20014;-62
2023/03/19 03:00:25;;;;;;;0.10;0.10;;;;;;;6.50;63.30;100921.50;7353372;19;20039;-62
2023/03/19 03:02:51;;;;;;;0.00;0.00;;;;;;;6.46;63.52;100933.59;7349055;19;20039;-62
2023/03/19 03:05:17;;;;;;;0.00;0.00;;;;;;;6.55;63.96;100950.03;7349232;19;20035;-62
2023/03/19 03:07:43;;;;;;;0.00;0.00;;;;;;;6.53;64.10;100951.75;7354037;19;20017;-61
2023/03/19 03:10:10;;;;;;;0.00;0.00;;;;;;;6.49;63.69;100951.78;7353486;19;20021;-62
2023/03/19 03:12:37;;;;;;;0.00;0.00;;;;;;;6.47;64.20;100948.28;7352492;19;20019;-61
2023/03/19 03:15:03;;;;;;;0.00;0.00;;;;;;;6.44;63.77;100948.31;7354671;19;20047;-61
2023/03/19 03:17:29;;;;;;;0.00;0.00;;;;;;;6.41;63.62;100947.47;7355312;19;20021;-62
2023/03/19 03:19:54;;;;;;;0.00;0.00;;;;;;;6.38;63.76;100950.03;7352228;19;20388;-62
2023/03/19 03:22:20;;;;;;;0.00;0.00;;;;;;;6.34;63.49;100937.97;7353155;19;20074;-62
2023/03/19 03:24:46;;;;;;;0.00;0.00;;;;;;;6.30;63.62;100938.84;7347662;19;20018;-61
2023/03/19 03:27:11;;;;;;;0.00;0.00;;;;;;;6.00;63.75;100890.47;7355309;19;20129;-62
2023/03/19 03:29:37;;;;;;;0.00;0.00;;;;;;;6.23;63.95;100932.78;7352764;19;20011;-62
2023/03/19 03:32:03;;;;;;;0.00;0.00;;;;;;;6.19;63.70;100946.63;7344840;19;20003;-62
2023/03/19 03:34:28;;;;;;;0.10;0.10;;;;;;;6.16;63.67;100931.06;7363510;19;20010;-61
2023/03/19 03:36:53;;;;;;;0.00;0.00;;;;;;;6.09;63.62;100929.34;7367635;19;20010;-62
2023/03/19 03:39:19;;;;;;;0.00;0.00;;;;;;;6.04;63.97;100926.75;7366693;19;20499;-62
2023/03/19 03:41:44;;;;;;;0.08;0.08;;;;;;;5.96;64.19;100918.97;7367607;19;20011;-61
2023/03/19 03:44:10;;;;;;;0.10;0.10;;;;;;;6.03;63.69;100944.88;7363756;19;20030;-62
2023/03/19 03:46:35;;;;;;;0.00;0.00;;;;;;;5.98;63.90;100945.78;7364097;19;20502;-61
2023/03/19 03:49:01;;;;;;;0.05;0.05;;;;;;;5.96;64.13;100942.28;7366542;19;20025;-62
2023/03/19 03:51:27;;;;;;;0.00;0.00;;;;;;;5.94;64.55;100943.19;7361901;19;20078;-61
2023/03/19 03:53:52;;;;;;;0.00;0.00;;;;;;;5.92;64.35;100937.97;7366202;19;20014;-62
2023/03/19 03:56:17;;;;;;;0.00;0.00;;;;;;;5.89;64.58;100943.13;7363225;19;20010;-62
2023/03/19 03:58:43;;;;;;;0.00;0.00;;;;;;;5.86;64.27;100948.31;7365693;19;20047;-62
2023/03/19 04:01:14;;;;;;;0.00;0.00;;;;;;;5.78;64.05;100938.78;7366851;19;20007;-61
2023/03/19 04:03:40;;;;;;;0.00;0.00;;;;;;;5.82;64.17;100956.06;7356847;19;20451;-61
2023/03/19 04:06:05;;;;;;;0.03;0.03;;;;;;;5.80;64.45;100958.69;7355693;19;20025;-61
2023/03/19 04:08:31;;;;;;;0.00;0.00;;;;;;;5.78;64.57;100954.34;7363094;19;20010;-61
2023/03/19 04:10:57;;;;;;;0.00;0.00;;;;;;;5.76;64.72;100964.72;7364618;19;20014;-61
2023/03/19 04:13:23;;;;;;;0.00;0.00;;;;;;;5.75;65.12;100967.31;7362228;19;20018;-61
2023/03/19 04:15:48;;;;;;;0.00;0.00;;;;;;;5.72;64.99;100965.56;7361520;19;20834;-62
2023/03/19 04:18:14;;;;;;;0.05;0.05;;;;;;;5.71;65.10;100974.22;7364159;19;20471;-62
2023/03/19 04:20:40;;;;;;;0.00;0.00;;;;;;;5.70;64.83;100962.13;7348869;19;20019;-61
2023/03/19 04:23:05;;;;;;;0.00;0.00;;;;;;;5.66;64.84;100955.19;7364493;19;20014;-61
2023/03/19 04:25:31;;;;;;;0.00;0.00;;;;;;;5.60;64.78;100956.06;7365997;19;20721;-61
2023/03/19 04:27:57;;;;;;;0.00;0.00;;;;;;;5.64;65.28;100978.53;7358257;19;20026;-61
2023/03/19 04:30:23;;;;;;;0.00;0.00;;;;;;;5.62;65.21;100969.88;7367248;19;20039;-61
2023/03/19 04:32:49;;;;;;;0.00;0.00;;;;;;;5.61;65.15;100967.28;7363337;19;20014;-62
2023/03/19 04:35:17;;;;;;;0.00;0.00;;;;;;;5.58;65.29;100962.13;7358399;19;20020;-62
2023/03/19 04:37:47;;;;;;;0.00;0.00;;;;;;;5.39;65.20;100941.34;7365908;19;20010;-62
2023/03/19 04:40:13;;;;;;;0.00;0.00;;;;;;;5.53;65.33;100979.38;7361588;19;20414;-62
2023/03/19 04:42:38;;;;;;;0.00;0.00;;;;;;;5.50;65.12;100980.22;7365779;19;20018;-62
2023/03/19 04:45:04;;;;;;;0.00;0.00;;;;;;;5.49;65.18;100985.41;7348824;19;20105;-62
2023/03/19 04:47:30;;;;;;;0.00;0.00;;;;;;;5.46;65.00;100978.47;7359626;19;20021;-62
2023/03/19 04:49:55;;;;;;;0.00;0.00;;;;;;;5.43;65.20;100989.69;7356962;19;20006;-62
2023/03/19 04:52:20;;;;;;;0.00;0.00;;;;;;;5.41;65.72;100991.41;7357088;19;20021;-62
2023/03/19 04:54:46;;;;;;;0.03;0.03;;;;;;;5.40;65.47;100983.63;7357191;19;20010;-62
2023/03/19 04:57:11;;;;;;;0.00;0.00;;;;;;;5.39;65.59;100981.91;7356367;19;20016;-62
2023/03/19 04:59:37;;;;;;;0.00;0.00;;;;;;;5.38;66.00;100969.84;7354517;19;20021;-61
2023/03/19 05:02:02;;;;;;;0.00;0.00;;;;;;;5.36;65.85;100977.56;7358400;19;20053;-61
2023/03/19 05:04:28;;;;;;;0.00;0.00;;;;;;;5.34;65.97;100987.06;7357129;19;20028;-61
2023/03/19 05:06:53;;;;;;;0.00;0.00;;;;;;;5.33;66.10;100987.94;7355895;19;20010;-61
2023/03/19 05:09:18;;;;;;;0.00;0.00;;;;;;;4.85;65.90;100916.13;7355336;19;20014;-61
2023/03/19 05:11:44;;;;;;;0.00;0.00;;;;;;;5.31;65.40;100989.66;7357405;19;20036;-62
2023/03/19 05:14:09;;;;;;;0.00;0.00;;;;;;;5.29;65.03;100981.03;7357968;19;22039;-61
2023/03/19 05:16:35;;;;;;;0.00;0.00;;;;;;;5.27;65.55;100972.41;7360472;19;20038;-62
2023/03/19 05:19:00;;;;;;;0.03;0.03;;;;;;;5.26;65.08;100978.41;7357392;19;20510;-62
2023/03/19 05:21:26;;;;;;;0.00;0.00;;;;;;;5.22;65.22;100981.88;7353971;19;20010;-62
2023/03/19 05:23:53;;;;;;;0.00;0.00;;;;;;;5.21;64.71;100987.88;7353725;19;20014;-61
2023/03/19 05:26:19;;;;;;;0.00;0.00;;;;;;;5.19;65.39;100987.03;7358251;19;20006;-62
2023/03/19 05:28:44;;;;;;;0.00;0.00;;;;;;;5.17;65.16;100997.38;7355380;19;20018;-62
2023/03/19 05:31:09;;;;;;;0.00;0.00;;;;;;;5.14;64.87;100987.00;7355855;19;20021;-61
2023/03/19 05:33:35;;;;;;;0.00;0.00;;;;;;;5.13;64.94;100974.94;7354666;19;20022;-62
2023/03/19 05:36:00;;;;;;;0.00;0.00;;;;;;;5.11;65.26;100970.59;7356132;19;20014;-62
2023/03/19 05:38:26;;;;;;;0.00;0.00;;;;;;;5.10;65.17;100974.03;7356962;19;20851;-62
2023/03/19 05:40:51;;;;;;;0.10;0.10;;;;;;;5.08;65.68;100980.94;7355328;19;20727;-61
2023/03/19 05:43:17;;;;;;;0.00;0.00;;;;;;;5.06;65.37;100982.63;7354046;19;20914;-62
2023/03/19 05:45:42;;;;;;;0.00;0.00;;;;;;;5.06;65.26;100988.69;7354497;19;20025;-61
2023/03/19 05:48:08;;;;;;;0.00;0.00;;;;;;;5.06;65.18;100995.59;7355674;19;20082;-62
2023/03/19 05:50:33;;;;;;;0.00;0.00;;;;;;;5.03;65.22;100993.88;7352927;19;20010;-62
2023/03/19 05:52:59;;;;;;;0.00;0.00;;;;;;;5.02;65.55;100993.84;7353885;19;20017;-62
2023/03/19 05:55:24;;;;;;;0.10;0.10;;;;;;;5.00;65.48;100992.97;7352167;19;20372;-62
2023/03/19 05:57:50;;;;;;;0.00;0.00;;;;;;;4.96;65.36;100997.25;7357369;19;20014;-62
2023/03/19 06:00:17;;;;;;;0.00;0.00;;;;;;;4.97;65.58;101003.28;7356430;19;20056;-62
2023/03/19 06:02:43;;;;;;;0.00;0.00;;;;;;;4.96;65.35;101017.97;7354346;19;20014;-61
2023/03/19 06:05:09;;;;;;;0.00;0.00;;;;;;;4.94;65.23;101024.88;7355381;19;20903;-61
2023/03/19 06:07:35;;;;;;;0.00;0.00;;;;;;;4.90;66.08;101029.16;7356450;19;20082;-62
2023/03/19 06:10:01;;;;;;;0.00;0.00;;;;;;;4.89;65.70;101040.38;7354586;19;20024;-62
2023/03/19 06:12:27;;;;;;;0.10;0.10;;;;;;;4.45;66.01;100962.47;7354140;19;20014;-62
2023/03/19 06:14:52;;;;;;;0.00;0.00;;;;;;;4.87;65.70;101029.16;7356411;19;20024;-62
2023/03/19 06:17:18;;;;;;;0.00;0.00;;;;;;;4.87;65.50;101036.06;7355028;19;20780;-62
2023/03/19 06:19:43;;;;;;;0.03;0.03;;;;;;;4.81;65.19;101034.25;7352501;19;20129;-62
2023/03/19 06:22:09;;;;;;;0.00;0.00;;;;;;;4.85;65.56;101051.53;7350412;19;20010;-62
2023/03/19 06:24:35;;;;;;;0.00;0.00;;;;;;;4.72;65.92;101017.84;7356605;19;20019;-62
2023/03/19 06:27:01;;;;;;;0.08;0.08;;;;;;;4.78;65.79;101031.69;7350530;19;20010;-62
2023/03/19 06:29:27;;;;;;;0.00;0.00;;;;;;;4.80;65.34;101058.41;7353011;19;20015;-62
2023/03/19 06:31:53;;;;;;;0.00;0.00;;;;;;;4.79;65.79;101046.34;7354705;19;20367;-62
2023/03/19 06:34:19;;;;;;;0.00;0.00;;;;;;;4.76;65.57;101035.97;7352150;19;20010;-61
2023/03/19 06:36:44;;;;;;;0.00;0.00;;;;;;;4.75;65.61;101042.00;7352282;19;20503;-62
2023/03/19 06:39:10;;;;;;;0.00;0.00;;;;;;;4.74;65.75;101045.44;7355794;19;20035;-61
2023/03/19 06:41:36;;;;;;;0.00;0.00;;;;;;;4.73;65.62;101045.44;7350716;19;20014;-62
2023/03/19 06:44:01;;;;;;;0.00;0.00;;;;;;;4.73;65.48;101050.63;7350989;19;20027;-62
2023/03/19 06:46:27;;;;;;;0.00;0.00;;;;;;;4.57;65.86;101016.03;7355074;19;20046;-61
2023/03/19 06:48:53;;;;;;;0.00;0.00;;;;;;;4.68;65.87;101043.69;7353855;19;20048;-62
2023/03/19 06:51:18;;;;;;;0.00;0.00;;;;;;;4.25;66.16;100980.44;7355183;19;20027;-62
2023/03/19 06:53:43;;;;;;;0.00;0.00;;;;;;;4.66;66.08;101054.84;7349934;19;20010;-62
2023/03/19 06:56:09;;;;;;;0.00;0.00;;;;;;;4.69;65.95;101041.97;7357001;19;20015;-62
2023/03/19 06:58:35;;;;;;;0.05;0.05;;;;;;;4.67;66.19;101038.50;7343869;19;20066;-62
2023/03/19 07:01:00;;;;;;;0.00;0.00;;;;;;;4.69;65.83;101044.53;7356465;19;20391;-62
2023/03/19 07:03:26;;;;;;;0.00;0.00;;;;;;;4.68;66.00;101043.69;7353004;19;20353;-61
2023/03/19 07:05:52;;;;;;;0.00;0.00;;;;;;;4.69;66.44;101054.91;7350445;19;20728;-62
2023/03/19 07:08:18;;;;;;;0.00;0.00;;;;;;;4.66;66.63;101062.63;7350867;19;20017;-62
2023/03/19 07:10:43;;;;;;;0.00;0.00;;;;;;;4.71;66.50;101073.88;7356404;19;20842;-62
2023/03/19 07:13:09;;;;;;;0.08;0.08;;;;;;;4.69;66.56;101065.25;7346263;19;20017;-61
2023/03/19 07:15:35;;;;;;;0.00;0.00;;;;;;;4.77;66.44;101081.69;7354831;19;20371;-62
2023/03/19 07:18:01;;;;;;;0.10;0.10;;;;;;;4.68;66.12;101058.34;7351187;19;20014;-61
2023/03/19 07:20:26;;;;;;;0.00;0.00;;;;;;;4.82;66.05;101072.25;7354218;19;20027;-62
2023/03/19 07:22:52;;;;;;;0.00;0.00;;;;;;;4.84;66.32;101080.88;7351531;19;20013;-61
2023/03/19 07:25:17;;;;;;;0.10;0.10;;;;;;;4.83;66.61;101081.72;7354893;19;20047;-62
2023/03/19 07:27:44;;;;;;;0.10;0.10;;;;;;;4.89;66.72;101084.34;7351604;19;20041;-62
2023/03/19 07:30:11;;;;;;;0.00;0.00;;;;;;;4.89;66.43;101076.59;7351101;19;20019;-62
2023/03/19 07:32:37;;;;;;;0.00;0.00;;;;;;;4.99;66.43;101094.78;7353152;19;20351;-62
2023/03/19 07:35:04;;;;;;;0.00;0.00;;;;;;;5.02;66.59;101084.41;7353356;19;20035;-62
2023/03/19 07:37:30;;;;;;;0.08;0.08;;;;;;;5.06;66.43;101086.19;7352361;19;20010;-62
2023/03/19 07:39:56;;;;;;;0.00;0.00;;;;;;;5.04;66.65;101078.41;7343484;19;20459;-62
2023/03/19 07:42:21;;;;;;;0.00;0.00;;;;;;;5.11;66.57;101084.47;7352424;19;20014;-62
2023/03/19 07:44:46;;;;;;;0.00;0.00;;;;;;;5.15;66.56;101083.66;7349331;19;20463;-62
2023/03/19 07:47:12;;;;;;;0.00;0.00;;;;;;;5.18;66.56;101086.25;7352804;19;20031;-62
2023/03/19 07:49:37;;;;;;;0.00;0.00;;;;;;;5.22;66.66;101082.84;7355632;19;20018;-62
2023/03/19 07:52:03;;;;;;;0.00;0.00;;;;;;;5.27;66.53;101086.31;7348177;19;20663;-62
2023/03/19 07:54:29;;;;;;;0.08;0.08;;;;;;;5.29;66.69;101088.91;7352296;19;20018;-62
2023/03/19 07:56:55;;;;;;;0.00;0.00;;;;;;;5.26;66.54;101084.56;7347687;19;20015;-62
2023/03/19 07:59:20;;;;;;;0.00;0.00;;;;;;;5.36;66.55;101091.53;7352949;19;20017;-62
2023/03/19 08:01:46;;;;;;;0.00;0.00;;;;;;;5.02;66.60;101037.84;7346065;19;20015;-62
2023/03/19 08:04:11;;;;;;;0.10;0.10;;;;;;;5.38;66.81;101076.00;7351455;19;20011;-62
2023/03/19 08:06:37;;;;;;;0.00;0.00;;;;;;;5.48;66.69;101085.56;7350162;19;20018;-61
2023/03/19 08:09:02;;;;;;;0.00;0.00;;;;;;;5.53;66.46;101099.38;7353052;19;20466;-62
2023/03/19 08:11:28;;;;;;;0.00;0.00;;;;;;;5.40;66.84;101051.84;7345986;19;20021;-61
2023/03/19 08:13:54;;;;;;;0.10;0.10;;;;;;;5.67;66.49;101091.66;7352091;19;20503;-62
2023/03/19 08:16:20;;;;;;;0.00;0.00;;;;;;;5.73;66.59;101104.66;7348241;19;20022;-62
2023/03/19 08:18:45;;;;;;;0.00;0.00;;;;;;;5.83;66.50;101098.63;7352450;19;20009;-62
2023/03/19 08:21:11;;;;;;;0.00;0.00;;;;;;;5.88;66.61;101091.75;7326299;19;20029;-61
2023/03/19 08:23:36;;;;;;;0.00;0.00;;;;;;;6.07;66.79;101112.53;7360594;19;20123;-62
2023/03/19 08:26:01;;;;;;;0.00;0.00;;;;;;;6.18;66.72;101100.47;7355915;19;20644;-61
2023/03/19 08:28:27;;;;;;;0.10;0.10;;;;;;;6.31;66.47;101107.41;7360055;19;20506;-62
2023/03/19 08:30:54;;;;;;;0.00;0.00;;;;;;;6.43;66.56;101106.53;7356984;19;20661;-61
2023/03/19 08:33:19;;;;;;;0.00;0.00;;;;;;;6.55;66.31;101106.56;7359751;19;20033;-62
2023/03/19 08:35:45;;;;;;;0.00;0.00;;;;;;;6.67;65.96;101110.88;7354479;19;20789;-61
2023/03/19 08:38:10;;;;;;;0.00;0.00;;;;;;;6.78;66.08;101110.88;7358703;19;20013;-62
2023/03/19 08:40:36;;;;;;;0.00;0.00;;;;;;;6.87;66.12;101103.94;7358388;19;20021;-62
2023/03/19 08:43:02;;;;;;;0.00;0.00;;;;;;;6.97;65.77;101100.47;7358389;19;20013;-63
2023/03/19 08:45:28;;;;;;;0.00;0.00;;;;;;;6.90;65.49;101088.38;7359817;19;20029;-62
2023/03/19 08:47:53;;;;;;;0.00;0.00;;;;;;;7.08;65.89;101107.38;7359830;19;20051;-62
2023/03/19 08:50:19;;;;;;;0.00;0.00;;;;;;;7.11;65.63;101110.84;7351682;19;20043;-62
2023/03/19 08:52:45;;;;;;;0.00;0.00;;;;;;;7.03;65.12;101090.06;7360217;19;20010;-62
2023/03/19 08:55:11;;;;;;;0.00;0.00;;;;;;;7.20;65.94;101102.19;7356798;19;20609;-62
2023/03/19 08:57:36;;;;;;;0.00;0.00;;;;;;;7.17;65.79;101076.19;7357238;19;20025;-62
2023/03/19 09:00:04;;;;;;;0.00;0.00;;;;;;;7.35;65.43;101102.13;7354964;19;20010;-62
2023/03/19 09:02:30;;;;;;;0.00;0.00;;;;;;;7.46;65.72;101099.50;7355370;19;20018;-62
2023/03/19 09:04:55;;;;;;;0.00;0.00;;;;;;;7.64;66.14;101121.94;7356584;19;20014;-62
2023/03/19 09:07:21;;;;;;;0.10;0.10;;;;;;;7.78;65.87;101102.81;7355130;19;20035;-62
2023/03/19 09:09:47;;;;;;;0.00;0.00;;;;;;;8.06;65.85;101100.94;7356774;19;20007;-62
2023/03/19 09:12:15;;;;;;;0.00;0.00;;;;;;;8.33;66.04;101099.03;7358051;19;20599;-62
2023/03/19 09:14:41;;;;;;;0.00;0.00;;;;;;;8.61;66.18;101101.44;7356257;19;20090;-62
2023/03/19 09:17:07;;;;;;;0.00;0.00;;;;;;;8.84;66.14;101097.75;7356477;19;25770;-62
2023/03/19 09:19:32;;;;;;;0.00;0.00;;;;;;;9.05;65.64;101082.81;7356846;19;20024;-63
2023/03/19 09:21:59;;;;;;;0.00;0.00;;;;;;;9.45;65.85;101124.94;7355772;19;22302;-62
2023/03/19 09:24:25;;;;;;;0.00;0.00;;;;;;;9.59;63.96;101102.19;7356117;19;20006;-63
2023/03/19 09:26:51;;;;;;;0.00;0.00;;;;;;;9.84;63.13;101091.44;7354877;19;20082;-62
2023/03/19 09:29:16;;;;;;;0.00;0.00;;;;;;;10.18;62.94;101107.47;7356045;19;20417;-62
2023/03/19 09:31:45;;;;;;;0.08;0.08;;;;;;;10.43;63.57;101110.59;7353166;19;20015;-62
2023/03/19 09:34:12;;;;;;;0.10;0.10;;;;;;;10.68;63.31;101118.06;7353555;19;20049;-63
2023/03/19 09:36:38;;;;;;;0.00;0.00;;;;;;;10.83;61.26;101120.41;7351828;19;20010;-62
2023/03/19 09:39:05;;;;;;;0.00;0.00;;;;;;;10.99;61.33;101111.41;7351611;19;20473;-62
2023/03/19 09:41:30;;;;;;;0.00;0.00;;;;;;;11.18;61.23;101114.56;7354181;19;20517;-62
2023/03/19 09:44:04;;;;;;;0.10;0.10;;;;;;;11.36;59.44;101108.13;7357065;19;22121;-62
2023/03/19 09:46:50;;;;;;;0.00;0.00;;;;;;;11.45;60.55;101113.16;7354406;19;20026;-62
2023/03/19 09:49:27;;;;;;;0.00;0.00;;;;;;;11.51;59.85;101113.06;7356124;19;22090;-62
2023/03/19 09:52:31;;;;;;;0.10;0.10;;;;;;;11.52;60.42;101104.31;7356198;19;20027;-62
2023/03/19 09:55:02;;;;;;;0.05;0.05;;;;;;;11.35;58.35;101075.00;7249324;19;2004303;-61
2023/03/19 09:57:28;;;;;;;0.00;0.00;;;;;;;11.53;58.20;101099.94;7356034;19;20011;-62
2023/03/19 09:59:55;;;;;;;0.10;0.10;;;;;;;11.55;57.36;101093.78;7356043;19;20028;-62
2023/03/19 10:02:40;;;;;;;0.10;0.10;;;;;;;11.60;59.32;101097.16;7356939;19;20026;-62
2023/03/19 10:05:21;;;;;;;0.03;0.03;;;;;;;11.56;58.53;101116.44;7355816;19;20107;-62
2023/03/19 10:08:32;;;;;;;0.10;0.10;;;;;;;11.58;58.77;101106.78;7358174;19;20010;-62
2023/03/19 10:11:16;;;;;;;0.10;0.10;;;;;;;11.60;59.21;101112.00;7254603;19;2004476;-62
2023/03/19 10:13:58;;;;;;;0.10;0.10;;;;;;;11.62;57.74;101111.09;7354881;19;20364;-62
2023/03/19 10:16:26;;;;;;;0.00;0.00;;;;;;;11.62;57.32;101110.22;7358639;19;20117;-62
2023/03/19 10:18:56;;;;;;;0.00;0.00;;;;;;;11.65;57.34;101118.84;7356460;19;20610;-62
2023/03/19 10:21:41;;;;;;;0.00;0.00;;;;;;;11.74;58.96;101119.56;7354506;19;20045;-58
2023/03/19 10:24:32;;;;;;;0.00;0.00;;;;;;;11.82;58.93;101112.47;7356659;19;20017;-58
2023/03/19 10:27:01;;;;;;;0.10;0.10;;;;;;;11.86;57.66;101108.84;7254840;19;2004545;-58
2023/03/19 10:29:27;;;;;;;0.10;0.10;;;;;;;11.95;58.10;101108.66;7355922;19;20022;-58
2023/03/19 10:32:03;;;;;;;0.03;0.03;;;;;;;12.12;58.50;101110.94;7353201;19;20010;-58
2023/03/19 10:34:34;;;;;;;0.05;0.05;;;;;;;12.11;55.63;101106.56;7349658;19;20601;-58
2023/03/19 10:37:11;;;;;;;0.10;0.10;;;;;;;12.22;56.17;101107.22;7353821;19;20781;-58
2023/03/19 10:39:39;;;;;;;0.10;0.10;;;;;;;12.29;56.75;101102.69;7355965;19;20029;-58
2023/03/19 10:42:24;;;;;;;0.10;0.10;;;;;;;12.45;57.64;101099.66;7349499;19;20015;-58
2023/03/19 10:44:58;;;;;;;0.00;0.00;;;;;;;12.47;55.63;101091.78;7352659;19;20011;-58
2023/03/19 10:47:25;;;;;;;0.00;0.00;;;;;;;12.51;56.03;101113.50;7365192;19;20010;-58
2023/03/19 10:49:51;;;;;;;0.00;0.00;;;;;;;12.54;55.08;101106.44;7361513;19;20139;-58
2023/03/19 10:52:35;;;;;;;0.00;0.00;;;;;;;12.69;56.93;101113.06;7361800;19;20821;-59
2023/03/19 10:55:15;;;;;;;0.00;0.00;;;;;;;12.73;56.04;101120.81;7355005;19;20035;-59
2023/03/19 10:57:42;;;;;;;0.10;0.10;;;;;;;12.76;54.05;101113.75;7347878;19;20015;-58
2023/03/19 11:00:23;;;;;;;0.10;0.10;;;;;;;12.78;54.80;101107.59;7355780;19;20022;-58
2023/03/19 11:02:54;;;;;;;0.10;0.10;;;;;;;12.62;53.57;101086.16;7352628;19;20017;-58
2023/03/19 11:05:25;;;;;;;0.10;0.10;;;;;;;12.76;54.15;101108.53;7352238;19;20013;-58
2023/03/19 11:08:05;;;;;;;0.10;0.10;;;;;;;12.77;54.16;101120.72;7352616;19;20011;-57
2023/03/19 11:10:33;;;;;;;0.05;0.05;;;;;;;12.75;53.05;101114.66;7354867;19;20112;-58
2023/03/19 11:13:05;;;;;;;0.00;0.00;;;;;;;12.77;54.30;101110.22;7341524;19;20021;-58
2023/03/19 11:15:38;;;;;;;0.10;0.10;;;;;;;12.81;54.37;101104.03;7352780;19;20574;-58
2023/03/19 11:18:22;;;;;;;0.10;0.10;;;;;;;12.89;54.83;101104.69;7353751;19;20951;-59
2023/03/19 11:21:01;;;;;;;0.00;0.00;;;;;;;12.95;53.42;101120.25;7352267;19;20010;-58
2023/03/19 11:23:28;;;;;;;0.10;0.10;;;;;;;12.98;52.04;101120.19;7354809;19;20018;-57
2023/03/19 11:25:58;;;;;;;;;;;;;;;13.12;55.94;101120.66;7354886;19;20102;-58
2023/03/19 11:28:25;;;;;;;0.10;0.10;;;;;;;13.15;52.96;101102.25;7353841;19;21226;-58
2023/03/19 11:30:51;;;;;;;0.00;0.00;;;;;;;13.26;51.88;101088.88;7354845;19;20006;-58
2023/03/19 11:33:43;;;;;;;0.00;0.00;;;;;;;13.43;53.21;101075.28;7352773;19;20398;-57